createdAt,value
2022-08-18T00:00:21.670Z,22.80
2022-08-18T00:03:13.224Z,22.80
2022-08-18T00:06:14.147Z,22.90
2022-08-18T00:09:03.217Z,22.80
2022-08-18T00:17:21.597Z,21.90
2022-08-18T00:20:11.727Z,22.80
2022-08-18T00:22:57.814Z,22.90
2022-08-18T00:25:45.264Z,22.80
2022-08-18T00:28:31.083Z,22.80
2022-08-18T00:31:16.965Z,22.70
2022-08-18T00:34:02.630Z,22.70
2022-08-18T00:36:50.113Z,23.30
2022-08-18T00:39:38.849Z,21.90
2022-08-18T00:42:31.874Z,22.70
2022-08-18T00:45:20.919Z,22.70
2022-08-18T00:48:08.687Z,22.80
2022-08-18T00:51:07.781Z,22.90
2022-08-18T00:53:56.917Z,22.70
2022-08-18T00:56:47.267Z,22.50
2022-08-18T00:59:40.054Z,23.30
2022-08-18T01:02:35.776Z,22.70
2022-08-18T01:05:40.750Z,22.70
2022-08-18T01:08:28.938Z,22.70
2022-08-18T01:11:15.222Z,22.70
2022-08-18T01:14:00.829Z,22.50
2022-08-18T01:17:06.613Z,22.60
2022-08-18T01:23:15.377Z,22.50
2022-08-18T01:26:01.059Z,22.70
2022-08-18T01:28:49.431Z,22.70
2022-08-18T01:31:38.608Z,22.60
2022-08-18T01:34:26.410Z,22.70
2022-08-18T01:37:12.160Z,22.60
2022-08-18T01:41:12.840Z,22.60
2022-08-18T01:43:04.411Z,22.60
2022-08-18T01:45:50.383Z,22.60
2022-08-18T01:48:37.701Z,22.50
2022-08-18T01:57:17.730Z,21.80
2022-08-18T02:00:05.253Z,21.80
2022-08-18T02:05:50.563Z,21.30
2022-08-18T02:08:37.221Z,21.50
2022-08-18T02:11:22.643Z,21.50
2022-08-18T02:17:02.233Z,21.70
2022-08-18T02:19:48.682Z,21.50
2022-08-18T02:22:34.435Z,21.80
2022-08-18T02:25:20.369Z,21.60
2022-08-18T02:28:06.249Z,21.50
2022-08-18T02:30:52.217Z,21.80
2022-08-18T02:33:38.204Z,21.80
2022-08-18T02:36:25.489Z,21.70
2022-08-18T02:39:11.589Z,21.70
2022-08-18T02:44:43.801Z,22.00
2022-08-18T02:47:33.542Z,21.80
2022-08-18T02:50:19.732Z,21.70
2022-08-18T02:53:05.392Z,21.10
2022-08-18T02:55:51.425Z,21.80
2022-08-18T02:58:37.138Z,21.80
2022-08-18T03:01:31.746Z,21.90
2022-08-18T03:04:29.119Z,21.80
2022-08-18T03:10:30.907Z,21.50
2022-08-18T03:13:07.139Z,20.80
2022-08-18T03:15:56.697Z,21.70
2022-08-18T03:18:43.477Z,21.60
2022-08-18T03:21:32.028Z,21.80
2022-08-18T03:24:22.635Z,21.60
2022-08-18T03:27:09.870Z,21.50
2022-08-18T03:29:56.045Z,21.60
2022-08-18T03:32:45.954Z,21.50
2022-08-18T03:35:31.991Z,21.30
2022-08-18T03:41:03.893Z,21.30
2022-08-18T03:43:51.857Z,21.40
2022-08-18T03:49:24.324Z,21.40
2022-08-18T03:52:10.850Z,21.20
2022-08-18T03:54:56.695Z,21.30
2022-08-18T03:57:44.116Z,21.30
2022-08-18T04:00:31.698Z,21.30
2022-08-18T04:03:17.774Z,21.50
2022-08-18T04:08:54.913Z,21.40
2022-08-18T04:11:44.497Z,21.40
2022-08-18T04:17:24.220Z,21.30
2022-08-18T04:20:11.800Z,21.20
2022-08-18T04:22:57.357Z,21.30
2022-08-18T04:25:43.390Z,21.20
2022-08-18T04:28:29.721Z,21.20
2022-08-18T04:31:16.154Z,21.20
2022-08-18T04:36:48.922Z,21.10
2022-08-18T04:39:34.893Z,21.20
2022-08-18T04:42:20.866Z,21.40
2022-08-18T04:45:07.238Z,21.30
2022-08-18T04:47:53.447Z,21.40
2022-08-18T04:50:39.897Z,21.40
2022-08-18T04:53:43.996Z,21.50
2022-08-18T04:56:34.718Z,21.40
2022-08-18T04:59:20.461Z,21.70
2022-08-18T05:05:04.221Z,21.70
2022-08-18T05:10:36.428Z,21.80
2022-08-18T05:16:16.834Z,22.10
2022-08-18T05:19:08.007Z,22.20
2022-08-18T05:21:59.581Z,22.20
2022-08-18T05:24:46.672Z,22.30
2022-08-18T05:27:36.305Z,22.20
2022-08-18T05:30:24.078Z,22.20
2022-08-18T05:33:12.723Z,22.50
2022-08-18T05:36:05.409Z,22.10
2022-08-18T05:38:57.409Z,21.70
2022-08-18T05:41:49.102Z,21.80
2022-08-18T05:44:46.142Z,21.90
2022-08-18T05:47:33.346Z,21.80
2022-08-18T05:50:21.407Z,21.80
2022-08-18T05:53:14.094Z,21.70
2022-08-18T05:56:25.275Z,21.90
2022-08-18T05:59:19.712Z,21.80
2022-08-18T06:02:37.272Z,21.80
2022-08-18T06:05:33.588Z,21.80
2022-08-18T06:08:23.331Z,21.80
2022-08-18T06:11:22.201Z,21.60
2022-08-18T06:17:11.106Z,21.30
2022-08-18T06:20:15.412Z,21.30
2022-08-18T06:23:21.644Z,21.10
2022-08-18T06:26:09.252Z,21.10
2022-08-18T06:29:12.941Z,21.20
2022-08-18T06:35:29.056Z,21.20
2022-08-18T06:38:45.681Z,21.40
2022-08-18T06:41:43.050Z,20.90
2022-08-18T06:44:46.572Z,20.80
2022-08-18T06:48:00.196Z,21.00
2022-08-18T06:53:58.512Z,20.80
2022-08-18T06:56:48.832Z,21.00
2022-08-18T06:59:38.671Z,21.10
2022-08-18T07:02:36.813Z,20.90
2022-08-18T07:05:29.659Z,21.10
2022-08-18T07:08:54.570Z,21.20
2022-08-18T07:14:47.444Z,21.20
2022-08-18T07:17:42.091Z,21.30
2022-08-18T07:24:02.021Z,21.50
2022-08-18T07:27:11.571Z,21.10
2022-08-18T07:30:15.251Z,21.70
2022-08-18T07:33:24.348Z,21.60
2022-08-18T07:36:13.806Z,21.70
2022-08-18T07:39:10.614Z,21.60
2022-08-18T07:42:09.710Z,21.60
2022-08-18T07:45:06.343Z,22.50
2022-08-18T07:48:10.860Z,21.60
2022-08-18T07:51:16.599Z,21.60
2022-08-18T07:54:47.089Z,21.50
2022-08-18T07:58:03.072Z,21.40
2022-08-18T08:01:04.390Z,21.40
2022-08-18T08:04:02.877Z,21.40
2022-08-18T08:07:26.716Z,21.40
2022-08-18T08:10:25.273Z,21.50
2022-08-18T08:13:53.498Z,21.40
2022-08-18T08:16:51.677Z,21.60
2022-08-18T08:20:04.980Z,21.80
2022-08-18T08:23:27.479Z,21.70
2022-08-18T08:26:36.480Z,21.80
2022-08-18T08:29:54.989Z,21.60
2022-08-18T08:33:08.191Z,22.60
2022-08-18T08:36:13.251Z,21.70
2022-08-18T08:39:11.627Z,21.70
2022-08-18T08:42:30.896Z,21.70
2022-08-18T08:45:27.249Z,21.60
2022-08-18T08:48:32.259Z,21.60
2022-08-18T08:51:44.451Z,21.50
2022-08-18T08:54:41.857Z,21.50
2022-08-18T08:57:33.797Z,21.50
2022-08-18T09:00:20.697Z,21.40
2022-08-18T09:03:19.814Z,21.50
2022-08-18T09:07:01.405Z,21.60
2022-08-18T09:10:22.810Z,21.30
2022-08-18T09:13:29.294Z,21.80
2022-08-18T09:16:54.936Z,21.20
2022-08-18T09:20:35.700Z,21.10
2022-08-18T09:23:26.319Z,21.10
2022-08-18T09:26:45.219Z,21.10
2022-08-18T09:29:57.621Z,21.10
2022-08-18T09:32:57.212Z,21.20
2022-08-18T09:36:12.785Z,21.20
2022-08-18T09:39:41.443Z,21.20
2022-08-18T09:42:59.863Z,21.20
2022-08-18T09:46:00.914Z,21.10
2022-08-18T09:48:47.613Z,21.20
2022-08-18T09:51:42.679Z,21.20
2022-08-18T09:54:49.048Z,21.10
2022-08-18T09:57:42.283Z,21.20
2022-08-18T10:00:35.138Z,21.20
2022-08-18T10:03:31.139Z,21.20
2022-08-18T10:06:19.391Z,21.20
2022-08-18T10:09:27.196Z,21.10
2022-08-18T10:12:39.892Z,20.40
2022-08-18T10:15:41.304Z,21.10
2022-08-18T10:18:34.662Z,21.80
2022-08-18T10:21:31.445Z,21.10
2022-08-18T10:24:36.292Z,21.00
2022-08-18T10:27:44.426Z,21.20
2022-08-18T10:30:36.549Z,21.20
2022-08-18T10:34:19.199Z,21.10
2022-08-18T10:37:43.370Z,21.00
2022-08-18T10:40:30.361Z,20.10
2022-08-18T10:46:42.492Z,20.80
2022-08-18T10:49:34.048Z,20.80
2022-08-18T10:52:54.452Z,20.70
2022-08-18T10:56:07.860Z,21.00
2022-08-18T10:59:16.411Z,20.80
2022-08-18T11:02:37.422Z,20.90
2022-08-18T11:05:27.724Z,20.90
2022-08-18T11:08:22.248Z,21.40
2022-08-18T11:14:31.676Z,21.00
2022-08-18T11:20:15.844Z,21.40
2022-08-18T11:23:13.883Z,21.60
2022-08-18T11:26:18.384Z,21.60
2022-08-18T11:29:27.334Z,21.70
2022-08-18T11:32:26.105Z,21.60
2022-08-18T11:35:19.014Z,21.50
2022-08-18T11:38:13.842Z,21.60
2022-08-18T11:41:25.830Z,21.50
2022-08-18T11:44:32.482Z,21.40
2022-08-18T11:47:27.629Z,21.40
2022-08-18T11:50:28.988Z,21.50
2022-08-18T11:53:26.434Z,21.30
2022-08-18T11:56:30.885Z,21.50
2022-08-18T12:02:38.419Z,21.70
2022-08-18T12:05:25.648Z,21.70
2022-08-18T12:08:56.696Z,21.60
2022-08-18T12:11:41.247Z,21.70
2022-08-18T12:14:35.312Z,21.80
2022-08-18T12:17:23.244Z,21.70
2022-08-18T12:20:11.911Z,21.80
2022-08-18T12:25:44.925Z,21.90
2022-08-18T12:28:30.947Z,22.20
2022-08-18T12:31:17.546Z,22.20
2022-08-18T12:34:04.478Z,22.30
2022-08-18T12:36:55.246Z,22.40
2022-08-18T12:39:44.261Z,22.30
2022-08-18T12:45:18.174Z,22.60
2022-08-18T12:48:08.677Z,22.40
2022-08-18T12:53:58.281Z,22.90
2022-08-18T12:56:51.563Z,22.80
2022-08-18T12:59:38.255Z,22.30
2022-08-18T13:02:28.510Z,22.70
2022-08-18T13:05:15.232Z,22.60
2022-08-18T13:08:04.937Z,22.70
2022-08-18T13:10:51.212Z,22.70
2022-08-18T13:13:44.629Z,22.90
2022-08-18T13:16:53.334Z,22.80
2022-08-18T13:19:40.553Z,22.90
2022-08-18T13:22:31.896Z,22.90
2022-08-18T13:25:28.757Z,23.00
2022-08-18T13:28:19.523Z,22.30
2022-08-18T13:31:06.024Z,23.40
2022-08-18T13:36:47.974Z,23.60
2022-08-18T13:39:34.703Z,23.50
2022-08-18T13:45:22.688Z,23.70
2022-08-18T13:48:10.909Z,23.90
2022-08-18T13:51:01.685Z,23.80
2022-08-18T13:56:57.189Z,23.70
2022-08-18T14:02:33.178Z,23.90
2022-08-18T14:05:21.920Z,23.70
2022-08-18T14:08:22.882Z,23.90
2022-08-18T14:11:09.773Z,23.90
2022-08-18T14:13:56.717Z,23.70
2022-08-18T14:16:43.965Z,24.00
2022-08-18T14:22:59.137Z,24.40
2022-08-18T14:34:32.260Z,25.90
2022-08-18T14:37:19.110Z,24.40
2022-08-18T14:40:07.509Z,24.30
2022-08-18T14:45:50.204Z,24.30
2022-08-18T14:51:28.765Z,24.20
2022-08-18T14:54:18.017Z,24.30
2022-08-18T14:57:10.409Z,24.40
2022-08-18T14:59:57.669Z,24.50
2022-08-18T15:02:46.205Z,24.10
2022-08-18T15:05:34.463Z,24.40
2022-08-18T15:11:11.808Z,24.40
2022-08-18T15:13:59.183Z,24.30
2022-08-18T15:16:45.674Z,24.40
2022-08-18T15:19:59.103Z,24.10
2022-08-18T15:23:01.372Z,24.60
2022-08-18T15:25:51.087Z,24.80
2022-08-18T15:28:38.296Z,24.60
2022-08-18T15:34:47.381Z,24.80
2022-08-18T15:37:37.809Z,24.70
2022-08-18T15:51:53.250Z,24.70
2022-08-18T15:54:42.274Z,24.80
2022-08-18T15:57:38.776Z,24.50
2022-08-18T16:00:30.596Z,24.40
2022-08-18T16:03:18.492Z,24.30
2022-08-18T16:06:06.147Z,24.30
2022-08-18T16:11:43.376Z,24.30
2022-08-18T16:14:30.302Z,24.30
2022-08-18T16:17:23.724Z,24.10
2022-08-18T16:23:00.365Z,24.00
2022-08-18T16:25:46.256Z,23.80
2022-08-18T16:28:34.867Z,23.80
2022-08-18T16:31:26.587Z,24.20
2022-08-18T16:37:02.511Z,24.50
2022-08-18T16:39:49.517Z,24.30
2022-08-18T16:42:39.075Z,24.20
2022-08-18T16:45:29.002Z,24.40
2022-08-18T16:48:16.962Z,24.40
2022-08-18T16:51:03.497Z,24.30
2022-08-18T16:53:53.714Z,24.30
2022-08-18T16:56:40.945Z,24.30
2022-08-18T16:59:44.795Z,24.40
2022-08-18T17:08:23.519Z,24.00
2022-08-18T17:11:17.363Z,24.30
2022-08-18T17:14:03.766Z,23.90
2022-08-18T17:16:53.886Z,24.00
2022-08-18T17:22:28.058Z,24.00
2022-08-18T17:25:21.005Z,23.90
2022-08-18T17:28:13.084Z,23.90
2022-08-18T17:36:59.261Z,23.80
2022-08-18T17:39:53.880Z,23.70
2022-08-18T17:42:43.108Z,23.70
2022-08-18T17:45:34.848Z,24.00
2022-08-18T17:48:50.326Z,23.60
2022-08-18T17:51:52.481Z,23.70
2022-08-18T17:54:46.176Z,23.60
2022-08-18T17:57:35.956Z,23.70
2022-08-18T18:06:08.687Z,23.60
2022-08-18T18:09:00.247Z,23.50
2022-08-18T18:14:41.327Z,23.60
2022-08-18T18:17:40.135Z,23.60
2022-08-18T18:20:41.511Z,23.00
2022-08-18T18:23:34.828Z,23.50
2022-08-18T18:26:30.198Z,23.30
2022-08-18T18:29:37.789Z,23.00
2022-08-18T18:32:59.369Z,23.30
2022-08-18T18:38:49.427Z,23.20
2022-08-18T18:41:39.423Z,23.20
2022-08-18T18:44:29.719Z,23.20
2022-08-18T18:47:57.162Z,23.10
2022-08-18T18:50:56.161Z,23.00
2022-08-18T18:54:19.211Z,23.00
2022-08-18T18:57:31.896Z,23.00
2022-08-18T19:00:54.119Z,23.00
2022-08-18T19:04:03.457Z,22.90
2022-08-18T19:07:05.601Z,22.90
2022-08-18T19:10:05.347Z,23.00
2022-08-18T19:13:00.749Z,22.90
2022-08-18T19:15:51.668Z,23.00
2022-08-18T19:18:59.748Z,23.00
2022-08-18T19:22:03.460Z,22.90
2022-08-18T19:25:07.229Z,23.00
2022-08-18T19:28:08.945Z,22.80
2022-08-18T19:30:59.501Z,22.80
2022-08-18T19:33:51.017Z,22.70
2022-08-18T19:36:58.218Z,22.70
2022-08-18T19:39:52.727Z,22.70
2022-08-18T19:42:51.197Z,22.70
2022-08-18T19:45:52.431Z,22.80
2022-08-18T19:49:10.206Z,22.70
2022-08-18T19:52:05.570Z,22.70
2022-08-18T19:55:50.918Z,22.70
2022-08-18T20:02:17.150Z,22.80
2022-08-18T20:05:09.750Z,22.60
2022-08-18T20:08:07.037Z,21.80
2022-08-18T20:11:41.160Z,22.70
2022-08-18T20:14:34.190Z,22.80
2022-08-18T20:17:23.237Z,22.60
2022-08-18T20:20:18.869Z,22.70
2022-08-18T20:23:35.492Z,22.70
2022-08-18T20:26:44.717Z,22.70
2022-08-18T20:29:46.237Z,23.30
2022-08-18T20:32:34.465Z,22.90
2022-08-18T20:35:31.066Z,22.50
2022-08-18T20:38:37.413Z,22.40
2022-08-18T20:41:30.347Z,22.40
2022-08-18T20:44:30.469Z,22.30
2022-08-18T20:47:57.869Z,22.60
2022-08-18T20:50:59.354Z,22.40
2022-08-18T20:53:54.760Z,22.30
2022-08-18T20:56:54.221Z,22.20
2022-08-18T20:59:48.904Z,22.30
2022-08-18T21:02:43.208Z,22.30
2022-08-18T21:05:37.909Z,22.00
2022-08-18T21:08:31.040Z,22.20
2022-08-18T21:11:43.301Z,22.30
2022-08-18T21:14:32.811Z,22.30
2022-08-18T21:17:21.058Z,22.20
2022-08-18T21:20:16.056Z,22.20
2022-08-18T21:23:09.475Z,22.30
2022-08-18T21:26:02.540Z,22.30
2022-08-18T21:29:01.518Z,22.20
2022-08-18T21:34:44.884Z,22.20
2022-08-18T21:37:35.068Z,22.90
2022-08-18T21:40:41.153Z,22.30
2022-08-18T21:43:49.297Z,22.20
2022-08-18T21:46:36.389Z,22.20
2022-08-18T21:49:28.106Z,22.20
2022-08-18T21:52:24.188Z,22.10
2022-08-18T21:55:26.547Z,22.10
2022-08-18T22:01:08.210Z,22.20
2022-08-18T22:03:58.724Z,22.20
2022-08-18T22:06:50.883Z,22.00
2022-08-18T22:10:19.439Z,22.00
2022-08-18T22:16:27.818Z,21.90
2022-08-18T22:19:19.396Z,21.80
2022-08-18T22:22:25.017Z,21.90
2022-08-18T22:25:12.092Z,21.80
2022-08-18T22:30:46.242Z,22.20
2022-08-18T22:33:32.068Z,21.90
2022-08-18T22:36:28.234Z,21.70
2022-08-18T22:39:18.459Z,21.80
2022-08-18T22:42:05.077Z,21.80
2022-08-18T22:44:51.786Z,22.00
2022-08-18T22:47:42.820Z,22.20
2022-08-18T22:53:17.777Z,21.90
2022-08-18T22:56:06.000Z,21.80
2022-08-18T22:58:53.199Z,21.80
2022-08-18T23:04:26.474Z,18.50
2022-08-18T23:07:13.340Z,21.80
2022-08-18T23:12:46.783Z,21.60
2022-08-18T23:18:33.439Z,21.60
2022-08-18T23:21:33.620Z,21.70
2022-08-18T23:24:21.345Z,22.50
2022-08-18T23:29:53.709Z,21.70
2022-08-18T23:32:39.553Z,21.80
2022-08-18T23:38:12.344Z,21.70
2022-08-18T23:43:48.263Z,22.00
2022-08-18T23:46:34.993Z,21.60
2022-08-18T23:52:07.158Z,21.70
2022-08-18T23:54:52.912Z,21.80
